Time;durP1;ratioP1;P1;durP2;ratioP2;P2;SDS_P1;SDS_P2;PMS_P1;PMS_P2;Temp;Humidity;BMP_temperature;BMP_pressure;BME280_temperature;BME280_humidity;BME280_pressure;Samples;Min_cycle;Max_cycle;Signal;HPM_P1;HPM_P2
2021/03/26 00:02:46;;;;;;;10.93;4.60;;;;;;;;;;10580774;27;20693;-72
2021/03/26 00:07:49;;;;;;;11.80;5.20;;;;;;;;;;10584013;27;20199;-71
2021/03/26 00:12:51;;;;;;;12.03;4.97;;;;;;;;;;10557777;27;20582;-71
2021/03/26 00:17:53;;;;;;;11.27;4.70;;;;;;;;;;10586267;27;20210;-70
2021/03/26 00:22:55;;;;;;;9.63;4.30;;;;;;;;;;10583073;27;20211;-72
2021/03/26 00:27:57;;;;;;;10.00;4.63;;;;;;;;;;10584553;27;20273;-70
2021/03/26 00:32:59;;;;;;;11.63;5.07;;;;;;;;;;10575514;27;20697;-70
2021/03/26 00:38:03;;;;;;;9.97;4.10;;;;;;;;;;10572956;27;20278;-70
2021/03/26 00:43:05;;;;;;;12.93;5.07;;;;;;;;;;10578748;27;20237;-71
2021/03/26 00:48:07;;;;;;;10.67;4.73;;;;;;;;;;10555397;27;20191;-71
2021/03/26 00:53:11;;;;;;;14.07;4.93;;;;;;;;;;10577052;27;20207;-70
2021/03/26 00:58:13;;;;;;;11.60;5.13;;;;;;;;;;10562875;27;20630;-70
2021/03/26 01:03:15;;;;;;;10.33;4.37;;;;;;;;;;10588043;27;20385;-70
2021/03/26 01:08:18;;;;;;;10.27;4.50;;;;;;;;;;10565710;27;20191;-71
2021/03/26 01:13:21;;;;;;;9.70;3.50;;;;;;;;;;10549419;27;20238;-70
2021/03/26 01:18:25;;;;;;;10.80;4.37;;;;;;;;;;10583699;27;20198;-71
2021/03/26 01:23:29;;;;;;;11.33;4.33;;;;;;;;;;10582277;27;20301;-71
2021/03/26 01:28:30;;;;;;;10.60;4.50;;;;;;;;;;10582864;27;20724;-72
2021/03/26 01:33:33;;;;;;;10.10;4.67;;;;;;;;;;10579430;27;20218;-70
2021/03/26 01:38:36;;;;;;;11.03;4.60;;;;;;;;;;10571020;27;20217;-70
2021/03/26 01:43:40;;;;;;;10.43;4.97;;;;;;;;;;10571051;27;20229;-71
2021/03/26 01:48:42;;;;;;;10.57;4.43;;;;;;;;;;10581022;27;20203;-70
2021/03/26 01:53:45;;;;;;;9.83;4.50;;;;;;;;;;10546900;27;20219;-71
2021/03/26 01:58:47;;;;;;;10.30;4.27;;;;;;;;;;10576719;27;20207;-70
2021/03/26 02:03:49;;;;;;;10.03;3.90;;;;;;;;;;10540939;28;20288;-69
2021/03/26 02:08:53;;;;;;;8.93;4.17;;;;;;;;;;10565791;27;20207;-69
2021/03/26 02:13:55;;;;;;;10.73;4.33;;;;;;;;;;10572820;27;20286;-69
2021/03/26 02:18:57;;;;;;;11.13;4.83;;;;;;;;;;10579196;27;20282;-70
2021/03/26 02:24:05;;;;;;;9.93;4.47;;;;;;;;;;10575909;27;20215;-70
2021/03/26 02:29:22;;;;;;;10.73;4.63;;;;;;;;;;10569658;27;20682;-70
2021/03/26 02:34:24;;;;;;;10.93;4.50;;;;;;;;;;10575353;27;20213;-72
2021/03/26 02:39:30;;;;;;;9.33;4.00;;;;;;;;;;10553167;28;20202;-69
2021/03/26 02:44:41;;;;;;;11.57;4.50;;;;;;;;;;10581484;27;20337;-70
2021/03/26 02:49:45;;;;;;;10.27;4.40;;;;;;;;;;10576158;27;20699;-70
2021/03/26 02:54:49;;;;;;;12.07;4.93;;;;;;;;;;10581689;27;20230;-71
2021/03/26 02:59:54;;;;;;;10.90;5.27;;;;;;;;;;10576107;27;20290;-70
2021/03/26 03:05:03;;;;;;;12.63;4.93;;;;;;;;;;10570902;27;20210;-69
2021/03/26 03:10:10;;;;;;;9.57;3.97;;;;;;;;;;10570769;27;20720;-69
2021/03/26 03:15:13;;;;;;;10.57;4.90;;;;;;;;;;10580753;27;20210;-69
2021/03/26 03:20:17;;;;;;;9.80;4.27;;;;;;;;;;10567118;27;20202;-70
2021/03/26 03:25:21;;;;;;;9.40;4.43;;;;;;;;;;10578427;27;20222;-70
2021/03/26 03:30:27;;;;;;;9.60;4.53;;;;;;;;;;10567339;27;20559;-71
2021/03/26 03:35:32;;;;;;;11.83;4.93;;;;;;;;;;10564768;28;20207;-70
2021/03/26 03:40:37;;;;;;;9.90;4.40;;;;;;;;;;10569042;28;20195;-71
2021/03/26 03:45:41;;;;;;;11.43;4.53;;;;;;;;;;10570684;28;20226;-71
2021/03/26 03:50:45;;;;;;;13.53;4.63;;;;;;;;;;10580698;28;20266;-71
2021/03/26 03:55:50;;;;;;;10.80;4.63;;;;;;;;;;10577328;28;20635;-71
2021/03/26 04:00:53;;;;;;;9.10;4.40;;;;;;;;;;10573956;28;20342;-70
2021/03/26 04:05:58;;;;;;;12.73;4.90;;;;;;;;;;10577128;28;20246;-70
2021/03/26 04:11:05;;;;;;;11.23;4.80;;;;;;;;;;10577889;28;20198;-69
2021/03/26 04:16:08;;;;;;;10.80;4.40;;;;;;;;;;10559002;28;20202;-71
2021/03/26 04:21:12;;;;;;;9.77;4.13;;;;;;;;;;10560066;28;20194;-71
2021/03/26 04:26:18;;;;;;;10.00;4.07;;;;;;;;;;10574939;28;20250;-69
2021/03/26 04:31:22;;;;;;;9.37;3.90;;;;;;;;;;10572767;28;20294;-71
2021/03/26 04:36:27;;;;;;;8.83;3.77;;;;;;;;;;10567727;28;20221;-70
2021/03/26 04:41:33;;;;;;;10.87;4.20;;;;;;;;;;10559712;28;20206;-71
2021/03/26 04:46:37;;;;;;;9.23;4.27;;;;;;;;;;10580981;27;20229;-71
2021/03/26 04:51:40;;;;;;;13.10;4.90;;;;;;;;;;10578031;27;20677;-70
2021/03/26 04:56:43;;;;;;;11.50;4.67;;;;;;;;;;10579219;27;20646;-70
2021/03/26 05:01:45;;;;;;;9.80;4.50;;;;;;;;;;10580044;27;20253;-70
2021/03/26 05:06:49;;;;;;;9.43;4.23;;;;;;;;;;10583735;27;20287;-71
2021/03/26 05:11:54;;;;;;;12.37;4.87;;;;;;;;;;10581833;27;20211;-69
2021/03/26 05:16:58;;;;;;;11.73;5.00;;;;;;;;;;10575105;27;20183;-70
2021/03/26 05:22:05;;;;;;;12.17;4.63;;;;;;;;;;10549392;27;20239;-70
2021/03/26 05:27:09;;;;;;;10.00;4.43;;;;;;;;;;10579782;27;20207;-70
2021/03/26 05:32:13;;;;;;;11.10;4.07;;;;;;;;;;10571145;27;20223;-70
2021/03/26 05:37:19;;;;;;;10.30;4.43;;;;;;;;;;10567784;27;20222;-73
2021/03/26 05:42:28;;;;;;;9.47;3.73;;;;;;;;;;10580970;27;20226;-69
2021/03/26 05:47:33;;;;;;;10.47;3.60;;;;;;;;;;10558244;27;20849;-71
2021/03/26 05:52:56;;;;;;;7.67;2.77;;;;;;;;;;10573530;27;20703;-72
2021/03/26 05:58:04;;;;;;;9.17;3.20;;;;;;;;;;10557719;28;20222;-72
2021/03/26 06:03:24;;;;;;;7.00;3.00;;;;;;;;;;10575871;27;20290;-70
2021/03/26 06:08:34;;;;;;;9.40;3.43;;;;;;;;;;10577070;27;20217;-70
2021/03/26 06:13:51;;;;;;;9.67;3.37;;;;;;;;;;10582693;27;20215;-71
2021/03/26 06:19:03;;;;;;;11.70;3.70;;;;;;;;;;10574969;27;20658;-70
2021/03/26 06:24:24;;;;;;;6.87;2.90;;;;;;;;;;10570962;27;20211;-71
2021/03/26 06:29:33;;;;;;;10.33;3.10;;;;;;;;;;10550650;27;20289;-70
2021/03/26 06:34:46;;;;;;;7.60;3.07;;;;;;;;;;10571457;27;20229;-70
2021/03/26 06:39:58;;;;;;;7.50;2.77;;;;;;;;;;10570290;27;20520;-71
2021/03/26 06:45:11;;;;;;;9.70;3.67;;;;;;;;;;10569156;27;21106;-70
2021/03/26 06:50:26;;;;;;;6.30;3.20;;;;;;;;;;10566877;27;20221;-71
2021/03/26 06:55:35;;;;;;;10.30;3.80;;;;;;;;;;10550938;27;20287;-70
2021/03/26 07:00:48;;;;;;;9.73;3.93;;;;;;;;;;10560530;27;20620;-71
2021/03/26 07:06:08;;;;;;;8.33;3.80;;;;;;;;;;10572115;27;20246;-70
2021/03/26 07:11:34;;;;;;;11.07;4.00;;;;;;;;;;10570319;27;20190;-70
2021/03/26 07:16:56;;;;;;;10.67;4.63;;;;;;;;;;10551081;27;20214;-69
2021/03/26 07:22:04;;;;;;;11.80;4.83;;;;;;;;;;10554722;28;20207;-70
2021/03/26 07:27:10;;;;;;;13.03;4.90;;;;;;;;;;10555646;28;20542;-71
2021/03/26 07:32:22;;;;;;;10.07;4.80;;;;;;;;;;10538791;28;20221;-70
2021/03/26 07:37:33;;;;;;;10.90;4.93;;;;;;;;;;10546194;28;20347;-70
2021/03/26 07:42:48;;;;;;;11.02;5.22;;;;;;;;;;10544863;28;20284;-72
2021/03/26 07:48:03;;;;;;;10.23;4.88;;;;;;;;;;10549922;28;20260;-70
2021/03/26 07:53:18;;;;;;;11.55;5.32;;;;;;;;;;10554196;28;20315;-71
2021/03/26 07:58:38;;;;;;;14.02;6.07;;;;;;;;;;10539162;28;20221;-71
2021/03/26 08:03:57;;;;;;;12.15;6.63;;;;;;;;;;10539793;28;20219;-71
2021/03/26 08:09:08;;;;;;;11.75;6.80;;;;;;;;;;10554330;28;20199;-72
2021/03/26 08:14:43;;;;;;;12.90;7.60;;;;;;;;;;10566085;27;20268;-71
2021/03/26 08:19:53;;;;;;;13.70;7.22;;;;;;;;;;10467633;28;20203;-71
2021/03/26 08:24:59;;;;;;;12.48;7.70;;;;;;;;;;10556809;27;20268;-70
2021/03/26 08:30:16;;;;;;;14.32;8.07;;;;;;;;;;10561741;27;20194;-71
2021/03/26 08:35:24;;;;;;;14.70;9.32;;;;;;;;;;10558570;27;20226;-71
2021/03/26 08:40:40;;;;;;;13.23;9.88;;;;;;;;;;10602640;28;20212;-71
2021/03/26 08:45:44;;;;;;;15.70;9.98;;;;;;;;;;10623605;28;20206;-72
2021/03/26 08:50:51;;;;;;;13.57;9.20;;;;;;;;;;10620362;28;20198;-71
2021/03/26 08:56:11;;;;;;;14.68;9.52;;;;;;;;;;10628883;27;20258;-72
2021/03/26 09:01:27;;;;;;;14.88;9.68;;;;;;;;;;10569824;27;20201;-71
2021/03/26 09:06:36;;;;;;;13.45;10.00;;;;;;;;;;10568219;27;20267;-71
2021/03/26 09:11:55;;;;;;;13.63;9.98;;;;;;;;;;10554008;27;20203;-71
2021/03/26 09:17:00;;;;;;;13.35;9.32;;;;;;;;;;10583340;27;20610;-71
2021/03/26 09:22:17;;;;;;;13.88;9.43;;;;;;;;;;10586697;27;20238;-71
2021/03/26 09:27:25;;;;;;;15.73;9.40;;;;;;;;;;10566534;27;20229;-72
2021/03/26 09:32:28;;;;;;;13.13;9.20;;;;;;;;;;10572539;27;21302;-72
2021/03/26 09:37:36;;;;;;;13.77;9.57;;;;;;;;;;10586142;27;20282;-72
2021/03/26 09:42:40;;;;;;;12.73;9.25;;;;;;;;;;10580414;27;20305;-71
2021/03/26 09:47:44;;;;;;;13.65;9.48;;;;;;;;;;10585969;27;20190;-71
2021/03/26 09:52:49;;;;;;;15.07;9.88;;;;;;;;;;10585197;27;20218;-71
2021/03/26 09:57:54;;;;;;;13.38;9.40;;;;;;;;;;10586634;27;20252;-69
2021/03/26 10:03:04;;;;;;;13.18;9.48;;;;;;;;;;10573508;27;20214;-72
2021/03/26 10:08:33;;;;;;;13.95;9.30;;;;;;;;;;10550815;27;20675;-72
2021/03/26 10:13:39;;;;;;;13.63;9.35;;;;;;;;;;10582889;27;20226;-71
2021/03/26 10:18:43;;;;;;;12.60;9.10;;;;;;;;;;10579432;27;20264;-72
2021/03/26 10:23:50;;;;;;;12.57;8.77;;;;;;;;;;10576842;27;20233;-71
2021/03/26 10:29:12;;;;;;;13.98;9.23;;;;;;;;;;10570076;27;20183;-71
2021/03/26 10:34:16;;;;;;;13.18;9.20;;;;;;;;;;10558000;27;20241;-71
2021/03/26 10:39:32;;;;;;;14.23;8.93;;;;;;;;;;10578931;27;20222;-71
2021/03/26 10:44:37;;;;;;;12.50;9.70;;;;;;;;;;10575624;27;20250;-72
2021/03/26 10:49:42;;;;;;;12.45;7.82;;;;;;;;;;10580862;27;20206;-72
2021/03/26 10:54:46;;;;;;;12.23;8.80;;;;;;;;;;10572366;27;20211;-73
2021/03/26 10:59:56;;;;;;;14.10;8.50;;;;;;;;;;10575714;27;20195;-70
2021/03/26 11:05:06;;;;;;;12.60;8.30;;;;;;;;;;10573753;27;20218;-71
2021/03/26 11:10:12;;;;;;;13.25;8.40;;;;;;;;;;10569932;27;20245;-72
2021/03/26 11:15:16;;;;;;;12.65;8.25;;;;;;;;;;10562430;27;20294;-72
2021/03/26 11:20:25;;;;;;;12.55;8.18;;;;;;;;;;10590421;27;20198;-71
2021/03/26 11:25:32;;;;;;;10.93;7.15;;;;;;;;;;10571600;27;20218;-72
2021/03/26 11:30:39;;;;;;;11.00;8.00;;;;;;;;;;10580125;27;20639;-72
2021/03/26 11:35:41;;;;;;;13.27;7.90;;;;;;;;;;10564901;27;20563;-73
2021/03/26 11:40:46;;;;;;;13.48;8.23;;;;;;;;;;10577592;27;20199;-71
2021/03/26 11:45:56;;;;;;;12.27;7.57;;;;;;;;;;10549383;28;20253;-72
2021/03/26 11:51:03;;;;;;;12.25;7.75;;;;;;;;;;10583145;27;20569;-71
2021/03/26 11:56:16;;;;;;;13.98;7.40;;;;;;;;;;10569300;28;20222;-70
2021/03/26 12:01:20;;;;;;;12.13;7.93;;;;;;;;;;10549033;27;20711;-72
2021/03/26 12:06:24;;;;;;;12.10;7.72;;;;;;;;;;10587713;27;20198;-69
2021/03/26 12:11:37;;;;;;;11.35;7.45;;;;;;;;;;10582977;27;20186;-70
2021/03/26 12:16:41;;;;;;;13.50;7.07;;;;;;;;;;10588363;27;20612;-72
2021/03/26 12:21:51;;;;;;;11.48;6.60;;;;;;;;;;10566775;27;20309;-71
2021/03/26 12:27:04;;;;;;;10.27;6.47;;;;;;;;;;10575679;27;20191;-70
2021/03/26 12:32:11;;;;;;;10.93;6.68;;;;;;;;;;10580254;27;20713;-72
2021/03/26 12:37:17;;;;;;;11.20;6.93;;;;;;;;;;10580136;27;20305;-71
2021/03/26 12:42:21;;;;;;;11.30;7.00;;;;;;;;;;10582601;27;20226;-70
2021/03/26 12:47:24;;;;;;;10.98;6.22;;;;;;;;;;10585586;27;20191;-72
2021/03/26 12:52:34;;;;;;;11.38;7.13;;;;;;;;;;10582580;27;20237;-71
2021/03/26 12:57:42;;;;;;;10.00;6.30;;;;;;;;;;10584080;27;20211;-72
2021/03/26 13:02:52;;;;;;;10.95;6.47;;;;;;;;;;10577660;27;20588;-72
2021/03/26 13:08:03;;;;;;;11.93;6.40;;;;;;;;;;10573845;27;20199;-71
2021/03/26 13:13:19;;;;;;;11.30;6.70;;;;;;;;;;10587654;27;20250;-72
2021/03/26 13:18:22;;;;;;;13.32;7.75;;;;;;;;;;10541174;27;22984;-73
2021/03/26 13:23:28;;;;;;;9.45;6.10;;;;;;;;;;10582488;27;20275;-72
2021/03/26 13:28:32;;;;;;;12.82;6.55;;;;;;;;;;10587296;27;20191;-72
2021/03/26 13:33:49;;;;;;;11.30;6.10;;;;;;;;;;10581955;27;20275;-71
2021/03/26 13:38:56;;;;;;;10.75;6.03;;;;;;;;;;10555127;27;20253;-71
2021/03/26 13:44:16;;;;;;;7.88;4.28;;;;;;;;;;10567349;27;20255;-70
2021/03/26 13:49:20;;;;;;;6.90;3.60;;;;;;;;;;10582486;27;20596;-70
2021/03/26 13:54:33;;;;;;;6.10;3.13;;;;;;;;;;10566644;27;20310;-72
2021/03/26 13:59:40;;;;;;;9.35;4.07;;;;;;;;;;10554534;27;20194;-71
2021/03/26 14:04:58;;;;;;;6.28;2.70;;;;;;;;;;10557468;28;20294;-72
2021/03/26 14:10:04;;;;;;;5.88;2.55;;;;;;;;;;10549772;28;20704;-72
2021/03/26 14:15:07;;;;;;;5.00;2.50;;;;;;;;;;10572250;27;20214;-71
2021/03/26 14:20:18;;;;;;;6.93;2.70;;;;;;;;;;10587244;28;20199;-71
2021/03/26 14:25:25;;;;;;;5.00;2.65;;;;;;;;;;10575546;27;20272;-72
2021/03/26 14:30:32;;;;;;;4.88;2.50;;;;;;;;;;10571062;27;20195;-73
2021/03/26 14:35:37;;;;;;;3.60;2.47;;;;;;;;;;10575194;27;20203;-70
2021/03/26 14:40:39;;;;;;;5.05;2.42;;;;;;;;;;10566038;27;20238;-71
2021/03/26 14:45:42;;;;;;;6.30;2.47;;;;;;;;;;10573498;27;20319;-71
2021/03/26 14:50:54;;;;;;;4.38;2.40;;;;;;;;;;10564903;27;20270;-71
2021/03/26 14:56:03;;;;;;;6.72;2.60;;;;;;;;;;10547491;27;20284;-71
2021/03/26 15:01:08;;;;;;;5.03;2.58;;;;;;;;;;10563516;27;20187;-72
2021/03/26 15:06:19;;;;;;;5.05;2.40;;;;;;;;;;10554488;28;20751;-70
2021/03/26 15:11:24;;;;;;;5.35;2.40;;;;;;;;;;10550387;27;20322;-71
2021/03/26 15:16:26;;;;;;;5.80;2.53;;;;;;;;;;10570059;27;20211;-71
2021/03/26 15:21:42;;;;;;;5.22;2.40;;;;;;;;;;10576155;27;20186;-70
2021/03/26 15:26:45;;;;;;;5.72;2.70;;;;;;;;;;10567986;27;20221;-71
2021/03/26 15:31:50;;;;;;;5.05;2.85;;;;;;;;;;10576195;27;20263;-71
2021/03/26 15:36:54;;;;;;;6.00;2.72;;;;;;;;;;10572198;27;20293;-71
2021/03/26 15:41:59;;;;;;;5.75;2.63;;;;;;;;;;10570234;27;20223;-72
2021/03/26 15:47:05;;;;;;;7.03;3.10;;;;;;;;;;10573460;28;20289;-70
2021/03/26 15:52:16;;;;;;;8.65;3.15;;;;;;;;;;10566119;28;20311;-72
2021/03/26 15:57:29;;;;;;;7.27;3.07;;;;;;;;;;10568779;28;20198;-72
2021/03/26 16:02:52;;;;;;;7.03;2.97;;;;;;;;;;10556563;28;20231;-71
2021/03/26 16:08:08;;;;;;;8.80;4.30;;;;;;;;;;10567737;28;20198;-72
2021/03/26 16:13:27;;;;;;;9.10;3.57;;;;;;;;;;10541153;28;20237;-71
2021/03/26 16:18:40;;;;;;;7.43;3.30;;;;;;;;;;10568496;28;20206;-73
2021/03/26 16:23:53;;;;;;;8.67;3.97;;;;;;;;;;10558136;28;20305;-72
2021/03/26 16:29:18;;;;;;;8.17;3.37;;;;;;;;;;10574178;28;20191;-72
2021/03/26 16:34:38;;;;;;;7.93;3.00;;;;;;;;;;10559121;28;20230;-70
2021/03/26 16:39:43;;;;;;;6.53;3.03;;;;;;;;;;10564166;27;20219;-72
2021/03/26 16:44:57;;;;;;;6.80;3.10;;;;;;;;;;10577727;27;20216;-70
2021/03/26 16:50:04;;;;;;;6.37;3.30;;;;;;;;;;10586312;27;20192;-71
2021/03/26 16:55:15;;;;;;;8.07;3.20;;;;;;;;;;10563921;27;20218;-72
2021/03/26 17:00:37;;;;;;;7.90;2.90;;;;;;;;;;10559697;27;20286;-73
2021/03/26 17:05:53;;;;;;;7.87;3.13;;;;;;;;;;10576438;27;20331;-73
2021/03/26 17:11:25;;;;;;;9.23;3.90;;;;;;;;;;10559715;27;20271;-71
2021/03/26 17:16:56;;;;;;;9.23;3.33;;;;;;;;;;10463109;27;20301;-72
2021/03/26 17:22:22;;;;;;;8.33;2.90;;;;;;;;;;10574093;27;20257;-72
2021/03/26 17:27:31;;;;;;;6.80;2.97;;;;;;;;;;10484554;28;20658;-70
2021/03/26 17:32:45;;;;;;;9.30;2.90;;;;;;;;;;10578812;27;20252;-71
2021/03/26 17:37:51;;;;;;;7.33;2.73;;;;;;;;;;10573425;27;20215;-72
2021/03/26 17:43:00;;;;;;;8.30;3.03;;;;;;;;;;10557333;27;20329;-71
2021/03/26 17:48:14;;;;;;;9.27;3.53;;;;;;;;;;10574896;27;20221;-71
2021/03/26 17:53:33;;;;;;;9.33;4.00;;;;;;;;;;10574651;27;20218;-70
2021/03/26 17:58:56;;;;;;;11.97;3.83;;;;;;;;;;10577260;27;20207;-71
2021/03/26 18:04:15;;;;;;;9.23;3.63;;;;;;;;;;10576403;27;20275;-70
2021/03/26 18:09:33;;;;;;;10.77;3.97;;;;;;;;;;10566904;27;20199;-70
2021/03/26 18:14:39;;;;;;;13.87;4.80;;;;;;;;;;10564501;27;20702;-71
2021/03/26 18:19:47;;;;;;;14.87;8.63;;;;;;;;;;10581011;27;20289;-72
2021/03/26 18:25:12;;;;;;;10.53;3.70;;;;;;;;;;10563670;27;20242;-72
2021/03/26 18:30:27;;;;;;;9.70;4.20;;;;;;;;;;10576910;27;20244;-70
2021/03/26 18:35:31;;;;;;;9.53;3.47;;;;;;;;;;10552859;27;20689;-71
2021/03/26 18:40:37;;;;;;;11.73;4.03;;;;;;;;;;10565115;27;20237;-72
2021/03/26 18:46:10;;;;;;;12.00;4.47;;;;;;;;;;10573165;27;20244;-72
2021/03/26 18:51:26;;;;;;;10.70;5.10;;;;;;;;;;10569370;27;20196;-71
2021/03/26 18:56:33;;;;;;;13.00;5.00;;;;;;;;;;10546274;27;20254;-70
2021/03/26 19:01:42;;;;;;;15.07;5.13;;;;;;;;;;10579239;27;20203;-71
2021/03/26 19:06:52;;;;;;;12.50;4.67;;;;;;;;;;10580335;27;20188;-70
2021/03/26 19:12:04;;;;;;;10.87;4.57;;;;;;;;;;10575235;27;20598;-71
2021/03/26 19:17:15;;;;;;;10.77;5.57;;;;;;;;;;10576019;27;20662;-70
2021/03/26 19:22:22;;;;;;;14.20;5.23;;;;;;;;;;10566625;27;20261;-71
2021/03/26 19:27:39;;;;;;;11.97;5.50;;;;;;;;;;10592386;27;20187;-71
2021/03/26 19:32:47;;;;;;;18.10;6.10;;;;;;;;;;10534572;28;20235;-71
2021/03/26 19:37:57;;;;;;;19.70;6.60;;;;;;;;;;10569617;27;20285;-71
2021/03/26 19:43:03;;;;;;;13.67;5.90;;;;;;;;;;10557411;27;20617;-71
2021/03/26 19:48:15;;;;;;;16.13;8.20;;;;;;;;;;10565908;28;20266;-71
2021/03/26 19:53:27;;;;;;;16.43;6.93;;;;;;;;;;10572956;28;20285;-69
2021/03/26 19:58:32;;;;;;;14.30;7.30;;;;;;;;;;10542486;28;20593;-70
2021/03/26 20:03:45;;;;;;;17.13;7.40;;;;;;;;;;10554484;28;20694;-71
2021/03/26 20:08:51;;;;;;;19.63;7.50;;;;;;;;;;10576197;28;20217;-71
2021/03/26 20:13:56;;;;;;;16.47;7.87;;;;;;;;;;10570058;27;20221;-71
2021/03/26 20:19:19;;;;;;;24.30;9.60;;;;;;;;;;10571963;27;20210;-68
2021/03/26 20:24:25;;;;;;;17.67;8.90;;;;;;;;;;10573853;27;20249;-71
2021/03/26 20:29:30;;;;;;;17.63;7.37;;;;;;;;;;10578018;27;20684;-70
2021/03/26 20:34:37;;;;;;;17.30;8.20;;;;;;;;;;10570479;27;20210;-72
2021/03/26 20:39:45;;;;;;;20.27;8.80;;;;;;;;;;10564550;27;20236;-71
2021/03/26 20:45:00;;;;;;;14.20;7.40;;;;;;;;;;10572961;27;20303;-71
2021/03/26 20:50:15;;;;;;;15.70;7.87;;;;;;;;;;10571549;27;21244;-70
2021/03/26 20:55:20;;;;;;;18.17;7.67;;;;;;;;;;10566559;27;20210;-71
2021/03/26 21:00:26;;;;;;;16.73;7.87;;;;;;;;;;10574925;27;20191;-71
2021/03/26 21:05:31;;;;;;;13.67;7.60;;;;;;;;;;10569086;27;20271;-71
2021/03/26 21:10:35;;;;;;;14.27;7.23;;;;;;;;;;10561794;27;20191;-69
2021/03/26 21:15:37;;;;;;;14.57;7.80;;;;;;;;;;10557883;27;20222;-71
2021/03/26 21:20:43;;;;;;;13.87;6.17;;;;;;;;;;10585760;27;20569;-70
2021/03/26 21:25:48;;;;;;;12.60;6.50;;;;;;;;;;10579979;27;20211;-70
2021/03/26 21:30:55;;;;;;;13.70;6.30;;;;;;;;;;10578752;27;20199;-69
2021/03/26 21:36:00;;;;;;;10.93;5.50;;;;;;;;;;10575771;27;20255;-71
2021/03/26 21:41:15;;;;;;;12.00;5.10;;;;;;;;;;10565403;27;20195;-72
2021/03/26 21:46:21;;;;;;;12.87;5.60;;;;;;;;;;10556565;27;20219;-72
2021/03/26 21:51:30;;;;;;;12.30;5.60;;;;;;;;;;10577699;27;20239;-70
2021/03/26 21:56:38;;;;;;;12.10;5.37;;;;;;;;;;10564839;27;20248;-70
2021/03/26 22:01:43;;;;;;;10.53;5.40;;;;;;;;;;10581404;27;20294;-70
2021/03/26 22:07:03;;;;;;;11.70;5.50;;;;;;;;;;10580844;27;20213;-70
2021/03/26 22:12:16;;;;;;;9.47;4.40;;;;;;;;;;10577108;27;20238;-70
2021/03/26 22:17:24;;;;;;;10.53;5.10;;;;;;;;;;10554472;27;20256;-71
2021/03/26 22:22:30;;;;;;;13.13;5.53;;;;;;;;;;10556914;27;20306;-70
2021/03/26 22:27:42;;;;;;;9.27;4.23;;;;;;;;;;10546156;27;20207;-69
2021/03/26 22:32:51;;;;;;;9.57;4.73;;;;;;;;;;10574129;27;20222;-70
2021/03/26 22:37:56;;;;;;;9.53;4.63;;;;;;;;;;10556692;27;20215;-70
2021/03/26 22:43:03;;;;;;;10.17;5.37;;;;;;;;;;10554976;27;20831;-70
2021/03/26 22:48:09;;;;;;;8.77;4.50;;;;;;;;;;10588929;27;20274;-69
2021/03/26 22:53:44;;;;;;;11.23;4.83;;;;;;;;;;10577442;27;20788;-70
2021/03/26 22:58:49;;;;;;;10.77;4.30;;;;;;;;;;10560165;27;20297;-71
2021/03/26 23:03:55;;;;;;;8.40;4.10;;;;;;;;;;10574603;27;20207;-70
2021/03/26 23:08:59;;;;;;;8.73;4.37;;;;;;;;;;10573422;27;20719;-71
2021/03/26 23:14:06;;;;;;;7.80;4.30;;;;;;;;;;10553409;27;20211;-70
2021/03/26 23:19:18;;;;;;;10.23;4.30;;;;;;;;;;10571145;27;20701;-71
2021/03/26 23:24:21;;;;;;;10.87;4.30;;;;;;;;;;10575378;27;20249;-69
2021/03/26 23:29:27;;;;;;;9.47;4.60;;;;;;;;;;10578164;27;21129;-71
2021/03/26 23:34:34;;;;;;;10.03;4.57;;;;;;;;;;10563245;27;20589;-70
2021/03/26 23:39:40;;;;;;;10.10;4.20;;;;;;;;;;10562263;27;20246;-71
2021/03/26 23:44:46;;;;;;;7.73;3.80;;;;;;;;;;10557954;27;20657;-71
2021/03/26 23:49:52;;;;;;;5.53;2.97;;;;;;;;;;10578023;28;20603;-71
2021/03/26 23:54:58;;;;;;;8.00;3.60;;;;;;;;;;10568358;28;20366;-72
